• Join FlightAware (Why Join?)
  • Login
  • US Flag 
08:41PM EDT


 

Airport Tracker/Info


-or-


 

Live Flight TrackerFlight Track Log ✈ GTH88 ✈ 13-Oct-2013 ✈ KHWD - KTEB

Flight Track Log - Related Links

Times and Time Zones

All times are in EDT time to prevent confusion due to time zone crossing. See the GTH88 flight status page for this flight to view local times or setup timezone preferences in your user account.

Time Position Orientation Groundspeed Altitude Reporting Facility
EDT Latitude Longitude Course Direction KTS MPH feet Rate Location/Type
05:29PM 37.6642 -122.1370 295° West 171 197 900  Level FlightAware ADS-B
05:29PM 37.6644 -122.1410 274° West 176 203 1,000 1,500 Climbing FlightAware ADS-B
05:29PM 37.6640 -122.1450 263° West 183 211 1,100 1,800 Climbing FlightAware ADS-B
05:29PM 37.6620 -122.1510 247° West 191 220 1,300 1,980 Climbing FlightAware ADS-B
05:29PM 37.6599 -122.1540 229° Southwest 195 224 1,400 1,680 Climbing FlightAware ADS-B
05:29PM 37.6574 -122.1570 224° Southwest 199 229 1,500 1,680 Climbing FlightAware ADS-B
05:29PM 37.6552 -122.1590 216° Southwest 202 232 1,600 840 Climbing FlightAware ADS-B
05:29PM 37.6517 -122.1610 204° Southwest 206 237 1,600 720 Level FlightAware ADS-B
05:29PM 37.6481 -122.1620 192° South 207 238 1,700 1,680 Climbing FlightAware ADS-B
05:29PM 37.6450 -122.1620 180° South 208 239 1,800 1,980 Climbing FlightAware ADS-B
05:30PM 37.6416 -122.1610 167° South 209 241 1,900 1,680 Climbing FlightAware ADS-B
05:30PM 37.6381 -122.1600 167° South 210 242 2,000 1,500 Climbing FlightAware ADS-B
05:30PM 37.6351 -122.1580 152° Southeast 212 244 2,100 1,500 Climbing FlightAware ADS-B
05:30PM 37.6319 -122.1550 143° Southeast 213 245 2,200 1,680 Climbing FlightAware ADS-B
05:30PM 37.6297 -122.1520 133° Southeast 214 246 2,300 1,980 Climbing FlightAware ADS-B
05:30PM 37.6279 -122.1490 127° Southeast 214 246 2,400 1,980 Climbing FlightAware ADS-B
05:30PM 37.6262 -122.1450 118° Southeast 214 246 2,500 1,680 Climbing FlightAware ADS-B
05:30PM 37.6250 -122.1410 111° Southeast 212 244 2,600 1,500 Climbing FlightAware ADS-B
05:30PM 37.6241 -122.1360 103° East 212 244 2,700 1,500 Climbing FlightAware ADS-B
05:30PM 37.6239 -122.1310 93° East 212 244 2,800 1,680 Climbing FlightAware ADS-B
05:30PM 37.6242 -122.1280 83° East 212 244 2,900 960 Climbing FlightAware ADS-B
05:30PM 37.6250 -122.1230 79° East 209 241 2,900  Level FlightAware ADS-B
05:30PM 37.6263 -122.1190 68° East 207 238 2,900  Level FlightAware ADS-B
05:30PM 37.6281 -122.1160 53° Northeast 204 235 2,900  Level FlightAware ADS-B
05:30PM 37.6298 -122.1130 54° Northeast 202 232 2,900  Level FlightAware ADS-B
05:30PM 37.6324 -122.1100 42° Northeast 200 230 2,900  Level FlightAware ADS-B
05:30PM 37.6355 -122.1070 37° Northeast 199 229 2,900  Level FlightAware ADS-B
05:31PM 37.6383 -122.1050 29° Northeast 200 230 2,900  Level FlightAware ADS-B
05:31PM 37.6414 -122.1040 14° North 203 234 2,900 600 Level FlightAware ADS-B
05:31PM 37.6470 -122.1010 23° Northeast 206 237 3,000 2,280 Climbing FlightAware ADS-B
05:31PM 37.6608 -122.0960 16° North 208 239 3,700 3,000 Climbing FlightAware ADS-B
05:31PM 37.6729 -122.0910 18° North 204 235 4,400 3,180 Climbing FlightAware ADS-B
05:31PM 37.6848 -122.0870 15° North 199 229 5,100 2,640 Climbing FlightAware ADS-B
05:32PM 37.6983 -122.0820 16° North 205 236 5,700 2,280 Climbing FlightAware ADS-B
05:32PM 37.7037 -122.0800 16° North 211 243 5,900 2,160 Climbing FlightAware ADS-B
05:32PM 37.7091 -122.0790 North 215 247 6,100 1,500 Climbing FlightAware ADS-B
05:32PM 37.7247 -122.0760 North 238 274 6,400 1,500 Climbing FlightAware ADS-B
05:32PM 37.7400 -122.0730 North 256 295 6,800 2,040 Climbing FlightAware ADS-B
05:33PM 37.7542 -122.0710 North 260 299 7,300 2,880 Climbing FlightAware ADS-B
05:33PM 37.7727 -122.0680 North 261 300 8,100 3,060 Climbing FlightAware ADS-B
05:33PM 37.7914 -122.0660 North 267 307 8,900 3,000 Climbing FlightAware ADS-B
05:33PM 37.8040 -122.0640 North 269 310 9,400 3,360 Climbing FlightAware ADS-B
05:33PM 37.8114 -122.0620 12° North 269 310 9,800 3,780 Climbing FlightAware ADS-B
05:33PM 37.8180 -122.0600 13° North 271 312 10,100 3,000 Climbing FlightAware ADS-B
05:33PM 37.8253 -122.0570 18° North 276 318 10,400 2,280 Climbing FlightAware ADS-B
05:34PM 37.8324 -122.0520 29° Northeast 281 323 10,600 2,040 Climbing FlightAware ADS-B
05:34PM 37.8528 -122.0370 30° Northeast 298 343 11,200 2,220 Climbing FlightAware ADS-B
05:34PM 37.8604 -122.0290 40° Northeast 304 350 11,500 2,160 Climbing FlightAware ADS-B
05:34PM 37.8641 -122.0250 40° Northeast 307 353 11,600 3,000 Climbing FlightAware ADS-B
05:34PM 37.8685 -122.0190 47° Northeast 309 356 11,900 3,600 Climbing FlightAware ADS-B
05:34PM 37.8735 -122.0110 52° Northeast 309 356 12,200 3,660 Climbing FlightAware ADS-B
05:34PM 37.8796 -122.0000 55° Northeast 311 358 12,700 3,300 Climbing FlightAware ADS-B
05:35PM 37.8884 -121.9790 62° Northeast 320 368 13,300 2,520 Climbing FlightAware ADS-B
05:35PM 37.8913 -121.9690 70° East 327 376 13,500 1,800 Climbing FlightAware ADS-B
05:35PM 37.8945 -121.9540 75° East 337 388 13,700 1,560 Climbing FlightAware ADS-B
05:35PM 37.9053 -121.8940 77° East 357 411 14,500 1,740 Climbing FlightAware ADS-B
05:36PM 37.9322 -121.7560 76° East 358 412 16,500 1,860 Climbing FlightAware ADS-B
05:37PM 37.9522 -121.6520 76° East 392 451 18,000 2,100 Climbing FlightAware ADS-B
05:38PM 37.9662 -121.5790 76° East 393 452 19,300 1,980 Climbing FlightAware ADS-B
05:38PM 37.9792 -121.5110 76° East 400 460 20,100 1,500 Climbing FlightAware ADS-B
05:39PM 37.9932 -121.4370 76° East 411 473 20,900 1,680 Climbing FlightAware ADS-B
05:39PM 38.0085 -121.3560 76° East 413 475 22,000 1,680 Climbing FlightAware ADS-B
05:40PM 38.0211 -121.2897 76° East 409 471 23,000 1,620 Climbing Oakland Center
05:41PM 38.0472 -121.1472 77° East 415 478 24,700 1,440 Climbing Oakland Center
05:42PM 38.0739 -121.0008 77° East 424 488 26,000 1,260 Climbing Oakland Center
05:43PM 38.0967 -120.8103 81° East 460 529 27,400 1,260 Climbing Oakland Center
05:44PM 38.1067 -120.6436 86° East 474 545 28,600 1,620 Climbing Oakland Center
05:50PM 38.1703 -119.6228 86° East 469 540 38,800 1,620 Climbing FlightAware ADS-B (KAHC)
05:51PM 38.1769 -119.5054 86° East 473 544 39,600 1,260 Climbing FlightAware ADS-B (KAHC)
05:51PM 38.1783 -119.4810 86° East 467 537 40,600 1,260 Climbing FlightAware ADS-B (KAHC)
05:52PM 38.1905 -119.2580 86° East 463 533 41,600 900 Climbing FlightAware ADS-B (KAHC)
05:53PM 38.1952 -119.1709 86° East 470 541 42,000 600 Climbing FlightAware ADS-B (KAHC)
05:54PM 38.2029 -119.0224 86° East 472 543 42,500 420 Climbing FlightAware ADS-B (KAHC)
05:54PM 38.2065 -118.9535 86° East 479 551 42,600 240 Climbing FlightAware ADS-B (KAHC)
05:55PM 38.2118 -118.8494 86° East 485 558 42,800 600 Climbing FlightAware ADS-B (KAHC)
05:55PM 38.2156 -118.7672 86° East 479 551 43,300 480 Climbing Oakland Center
05:56PM 38.2244 -118.5978 86° East 482 555 43,600 -120 Climbing Oakland Center
05:57PM 38.2328 -118.4261 86° East 487 560 43,100 -300 Descending Oakland Center
05:58PM 38.2419 -118.2175 87° East 493 567 43,000 -60 Descending Oakland Center
05:59PM 38.2494 -118.0681 86° East 497 572 43,000  Level Oakland Center
06:00PM 38.2583 -117.8533 87° East 505 581 43,000  Level Oakland Center
06:02PM 38.2658 -117.6725 87° East 509 586 43,000  Level Oakland Center
06:03PM 38.2725 -117.4939 87° East 505 581 43,000  Level Oakland Center
06:04PM 38.2789 -117.3311 87° East 500 575 43,000  Level Oakland Center
06:05PM 38.2853 -117.1536 87° East 503 579 43,000  Level Oakland Center
06:05PM 38.2894 -117.0222 88° East 504 580 43,000  Level Salt Lake Center
06:06PM 38.2953 -116.8408 88° East 508 585 43,000  Level Salt Lake Center
06:07PM 38.3022 -116.6214 88° East 514 592 43,000  Level Salt Lake Center
06:08PM 38.3078 -116.4389 88° East 515 593 43,000  Level Salt Lake Center
06:09PM 38.3136 -116.2589 88° East 511 588 43,000  Level Salt Lake Center
06:10PM 38.3181 -116.0775 88° East 511 588 43,000  Level Salt Lake Center
06:12PM 38.3219 -115.8978 88° East 509 586 43,000  Level Salt Lake Center
06:13PM 38.3264 -115.7189 88° East 506 582 43,000  Level Salt Lake Center
06:14PM 38.3308 -115.5367 88° East 513 590 43,000  Level Salt Lake Center
06:15PM 38.3356 -115.3278 88° East 512 589 43,000  Level Salt Lake Center
06:16PM 38.3403 -115.1464 88° East 513 590 43,000  Level Salt Lake Center
06:21PM 38.3546 -114.0954 88° East 513 590 43,000  Level FlightAware ADS-B
06:22PM 38.3556 -113.9894 89° East 513 590 43,000  Level FlightAware ADS-B
06:23PM 38.3565 -113.8949 89° East 512 589 43,000  Level FlightAware ADS-B
06:24PM 38.3578 -113.7129 89° East 511 588 43,000  Level FlightAware ADS-B
06:24PM 38.3583 -113.6277 90° East 512 589 43,000  Level FlightAware ADS-B
06:25PM 38.3587 -113.5532 90° East 511 588 43,000  Level FlightAware ADS-B
06:26PM 38.3597 -113.3043 90° East 511 588 43,000  Level FlightAware ADS-B
06:26PM 38.3599 -113.2491 90° East 512 589 43,000  Level FlightAware ADS-B
06:27PM 38.3602 -113.1155 90° East 512 589 43,000  Level FlightAware ADS-B
06:27PM 38.3608 -113.0130 90° East 515 593 43,000  Level FlightAware ADS-B
06:27PM 38.3608 -113.0093 90° East 515 593 43,000  Level FlightAware ADS-B
06:28PM 38.3634 -112.9220 88° East 515 593 43,000  Level FlightAware ADS-B
06:28PM 38.3665 -112.8260 88° East 516 594 43,000  Level FlightAware ADS-B
06:29PM 38.3683 -112.7701 88° East 516 594 43,000  Level FlightAware ADS-B
06:29PM 38.3694 -112.7350 88° East 517 595 43,000  Level FlightAware ADS-B
06:30PM 38.3731 -112.6190 88° East 517 595 43,000  Level FlightAware ADS-B
06:30PM 38.3761 -112.5180 88° East 520 598 43,000  Level FlightAware ADS-B
06:31PM 38.3803 -112.3750 88° East 519 597 43,000  Level FlightAware ADS-B
06:31PM 38.3829 -112.2840 88° East 512 589 43,000  Level FlightAware ADS-B
06:32PM 38.3862 -112.1660 88° East 507 583 43,000  Level FlightAware ADS-B
06:33PM 38.3888 -112.0680 88° East 506 582 43,000  Level FlightAware ADS-B
06:33PM 38.3913 -111.9720 88° East 508 585 43,000  Level FlightAware ADS-B
06:34PM 38.3935 -111.8820 88° East 509 586 43,000  Level FlightAware ADS-B
06:34PM 38.3966 -111.7520 88° East 506 582 43,000  Level FlightAware ADS-B
06:35PM 38.3990 -111.6480 88° East 505 581 43,000  Level FlightAware ADS-B
06:36PM 38.4013 -111.5440 88° East 511 588 43,000  Level FlightAware ADS-B
06:36PM 38.4033 -111.4500 88° East 515 593 43,000  Level FlightAware ADS-B
06:36PM 38.4030 -111.4624 268° West 515 593 43,000  Level FlightAware ADS-B (KMTJ)
06:37PM 38.4053 -111.3510 88° East 514 592 43,000  Level FlightAware ADS-B
06:37PM 38.4056 -111.3362 89° East 513 590 43,000  Level FlightAware ADS-B (KMTJ)
06:37PM 38.4072 -111.2542 89° East 512 589 43,000  Level FlightAware ADS-B (KMTJ)
06:37PM 38.4080 -111.2130 89° East 511 588 43,000  Level FlightAware ADS-B
06:38PM 38.4091 -111.1526 89° East 513 590 43,000  Level FlightAware ADS-B (KMTJ)
06:38PM 38.4112 -111.0330 89° East 512 589 43,000  Level FlightAware ADS-B
06:39PM 38.4133 -110.9084 89° East 519 597 43,000  Level FlightAware ADS-B (KMTJ)
06:40PM 38.4149 -110.8087 89° East 522 601 43,000  Level FlightAware ADS-B (KMTJ)
06:40PM 38.4168 -110.6842 89° East 528 608 43,000  Level FlightAware ADS-B (KMTJ)
06:41PM 38.4190 -110.5982 88° East 531 611 43,000  Level FlightAware ADS-B (KMTJ)
06:42PM 38.4230 -110.4323 88° East 533 613 43,000  Level FlightAware ADS-B (KMTJ)
06:42PM 38.4261 -110.2941 88° East 535 616 43,000  Level FlightAware ADS-B (KMTJ)
06:43PM 38.4278 -110.2130 88° East 535 616 43,000  Level FlightAware ADS-B (KMTJ)
06:43PM 38.4300 -110.1055 88° East 533 613 43,000  Level FlightAware ADS-B (KMTJ)
06:44PM 38.4323 -109.9901 89° East 530 610 43,000  Level FlightAware ADS-B (KMTJ)
06:45PM 38.4345 -109.8722 89° East 532 612 43,000  Level FlightAware ADS-B (KMTJ)
06:45PM 38.4363 -109.7713 89° East 533 613 43,000  Level FlightAware ADS-B (KMTJ)
06:46PM 38.4380 -109.6686 89° East 533 613 43,000  Level FlightAware ADS-B (KMTJ)
06:46PM 38.4400 -109.5435 89° East 532 612 43,000  Level FlightAware ADS-B (KMTJ)
06:47PM 38.4413 -109.4558 89° East 533 613 43,000  Level FlightAware ADS-B (KMTJ)
06:47PM 38.4429 -109.3470 89° East 536 617 43,000  Level FlightAware ADS-B (KMTJ)
06:48PM 38.4445 -109.2230 89° East 535 616 43,000  Level FlightAware ADS-B (KMTJ)
06:49PM 38.4458 -109.1201 89° East 539 620 43,000  Level FlightAware ADS-B (KMTJ)
06:49PM 38.4469 -109.0152 89° East 541 623 43,000  Level FlightAware ADS-B (KMTJ)
06:50PM 38.4481 -108.9005 89° East 543 625 43,000  Level FlightAware ADS-B (KMTJ)
06:50PM 38.4493 -108.7746 89° East 544 626 43,000  Level FlightAware ADS-B (KMTJ)
06:51PM 38.4502 -108.6590 89° East 541 623 43,000  Level FlightAware ADS-B (KMTJ)
06:51PM 38.4509 -108.5701 89° East 539 620 43,000  Level FlightAware ADS-B (KMTJ)
06:52PM 38.4519 -108.4327 89° East 538 619 43,000  Level FlightAware ADS-B (KMTJ)
06:53PM 38.4525 -108.3125 90° East 537 618 43,000  Level FlightAware ADS-B (KMTJ)
06:53PM 38.4530 -108.2285 90° East 537 618 43,000 60 Level FlightAware ADS-B (KMTJ)
06:54PM 38.4534 -108.1166 90° East 539 620 43,100 600 Climbing FlightAware ADS-B (KMTJ)
06:55PM 38.4538 -108.0120 90° East 530 610 43,800 840 Climbing FlightAware ADS-B (KMTJ)
06:55PM 38.4540 -107.8666 90° East 528 608 44,300 660 Climbing FlightAware ADS-B (KMTJ)
06:56PM 38.4541 -107.7878 90° East 526 605 44,600 420 Climbing FlightAware ADS-B (KMTJ)
06:57PM 38.4539 -107.5903 90° East 525 604 45,000 240 Climbing FlightAware ADS-B (KMTJ)
06:57PM 38.4537 -107.4802 90° East 526 605 45,000  Level FlightAware ADS-B (KMTJ)
06:58PM 38.4536 -107.4383 90° East 522 601 45,000  Level FlightAware ADS-B (KMTJ)
06:58PM 38.4532 -107.3027 90° East 520 598 45,000  Level FlightAware ADS-B (KMTJ)
06:59PM 38.4529 -107.2329 90° East 524 603 45,000  Level FlightAware ADS-B (KMTJ)
06:59PM 38.4555 -107.1310 88° East 528 608 45,000  Level FlightAware ADS-B (KANK)
06:59PM 38.4536 -107.4432 270° West 526 605 45,000  Level FlightAware ADS-B (KMTJ)
07:00PM 38.4656 -107.0084 88° East 525 604 45,000  Level FlightAware ADS-B (KMTJ)
07:00PM 38.4743 -106.9407 81° East 528 608 45,000  Level FlightAware ADS-B (KMTJ)
07:01PM 38.4969 -106.8153 77° East 530 610 45,000  Level FlightAware ADS-B (KMTJ)
07:01PM 38.5071 -106.7640 76° East 528 608 45,000  Level FlightAware ADS-B (KANK)
07:02PM 38.5332 -106.6315 76° East 528 608 45,000  Level FlightAware ADS-B (KMTJ)
07:02PM 38.5532 -106.5302 76° East 529 609 45,000  Level FlightAware ADS-B (KMTJ)
07:03PM 38.5739 -106.4378 74° East 531 611 45,000  Level FlightAware ADS-B (KMTJ)
07:04PM 38.5991 -106.3389 72° East 533 613 45,000  Level FlightAware ADS-B (KMTJ)
07:04PM 38.6209 -106.2531 72° East 535 616 45,000  Level FlightAware ADS-B (KMTJ)
07:05PM 38.6475 -106.1484 72° East 539 620 45,000  Level FlightAware ADS-B (KMTJ)
07:05PM 38.6662 -106.0743 72° East 543 625 45,000  Level FlightAware ADS-B (KMTJ)
07:06PM 38.6876 -105.9896 72° East 544 626 45,000  Level FlightAware ADS-B (KMTJ)
07:06PM 38.7261 -105.8361 72° East 543 625 45,000  Level FlightAware ADS-B (KMTJ)
07:07PM 38.7499 -105.7407 72° East 544 626 45,000  Level FlightAware ADS-B (KMTJ)
07:07PM 38.7791 -105.6235 72° East 541 623 45,000  Level FlightAware ADS-B (KANK)
07:08PM 38.7896 -105.5813 72° East 544 626 45,000  Level FlightAware ADS-B (KANK)
07:09PM 38.8329 -105.4057 72° East 546 628 45,000  Level FlightAware ADS-B (KANK)
07:09PM 38.8488 -105.3411 72° East 545 627 45,000  Level FlightAware ADS-B (KEIK)
07:10PM 38.8759 -105.2297 73° East 546 628 45,000  Level FlightAware ADS-B (KANK)
07:10PM 38.9119 -105.0817 73° East 543 625 45,000  Level FlightAware ADS-B (KEIK)
07:11PM 38.9256 -105.0249 73° East 540 621 45,000  Level FlightAware ADS-B (KEIK)
07:12PM 38.9749 -104.8202 73° East 542 624 45,000  Level FlightAware ADS-B (KEIK)
07:12PM 39.0044 -104.6971 73° East 544 626 45,000  Level FlightAware ADS-B (KEIK)
07:13PM 39.0218 -104.6239 73° East 543 625 45,000  Level FlightAware ADS-B (KEIK)
07:13PM 39.0493 -104.5084 73° East 543 625 45,000  Level FlightAware ADS-B (KEIK)
07:14PM 39.0727 -104.4090 73° East 545 627 45,000  Level FlightAware ADS-B (KEIK)
07:15PM 39.0970 -104.3057 73° East 545 627 45,000  Level FlightAware ADS-B (KEIK)
07:16PM 39.1368 -104.1353 73° East 543 625 45,000  Level FlightAware ADS-B (KEIK)
07:16PM 39.1682 -103.9998 73° East 540 621 45,000  Level FlightAware ADS-B (KEIK)
07:18PM 39.2576 -103.6102 73° East 537 618 45,000  Level FlightAware ADS-B (KEIK)
07:20PM 39.3257 -103.3096 74° East 542 624 45,000  Level FlightAware ADS-B (KEIK)
07:22PM 39.3958 -102.9948 74° East 546 628 45,000  Level FlightAware ADS-B (KEIK)
07:23PM 39.4353 -102.8156 74° East 546 628 45,000  Level Denver Center
07:24PM 39.4761 -102.6267 74° East 547 629 45,000  Level Denver Center
07:25PM 39.5178 -102.4392 74° East 545 627 45,000  Level Denver Center
07:26PM 39.5556 -102.2556 75° East 540 621 45,000  Level Denver Center
07:27PM 39.6006 -102.0483 74° East 537 618 45,000  Level Denver Center
07:28PM 39.6392 -101.8686 74° East 540 621 45,000  Level Denver Center
07:29PM 39.6825 -101.6594 75° East 540 621 45,000  Level Denver Center
07:30PM 39.7192 -101.4797 75° East 540 621 45,000  Level Denver Center
07:31PM 39.7622 -101.2700 75° East 539 620 45,000  Level Denver Center
07:32PM 39.7994 -101.0892 75° East 542 624 45,000  Level Denver Center
07:33PM 39.8422 -100.8789 75° East 542 624 45,000  Level Denver Center
07:34PM 39.8781 -100.6942 76° East 548 631 45,000  Level Denver Center
07:35PM 39.9203 -100.4814 75° East 547 629 45,000  Level Denver Center
07:41PM 40.1239 -99.4199 75° East 545 627 45,000  Level FlightAware ADS-B
07:42PM 40.1583 -99.2345 76° East 546 628 45,000  Level FlightAware ADS-B
07:43PM 40.1893 -99.0658 76° East 545 627 45,000  Level FlightAware ADS-B
07:44PM 40.2547 -98.7019 76° East 541 623 45,000  Level Denver Center
07:45PM 40.2878 -98.5128 77° East 541 623 45,000  Level Minneapolis Center
07:46PM 40.3217 -98.3228 77° East 539 620 45,000  Level Minneapolis Center
07:48PM 40.3614 -98.0936 77° East 540 621 45,000  Level Minneapolis Center
07:49PM 40.3953 -97.9014 77° East 542 624 45,000  Level Minneapolis Center
07:50PM 40.4278 -97.7072 78° East 545 627 45,000  Level Minneapolis Center
07:51PM 40.4608 -97.5128 77° East 547 629 45,000  Level Minneapolis Center
07:52PM 40.4950 -97.3047 78° East 547 629 45,000  Level Minneapolis Center
07:53PM 40.5275 -97.1100 78° East 546 628 45,000  Level Minneapolis Center
07:54PM 40.5597 -96.9164 78° East 546 628 45,000  Level Minneapolis Center
07:55PM 40.5908 -96.7214 78° East 547 629 45,000  Level Minneapolis Center
07:56PM 40.6222 -96.5281 78° East 545 627 45,000  Level Minneapolis Center
07:57PM 40.6581 -96.2953 78° East 544 626 45,000  Level Minneapolis Center
07:58PM 40.6883 -96.1003 78° East 546 628 45,000  Level Minneapolis Center
07:59PM 40.7192 -95.9072 78° East 544 626 45,000  Level Minneapolis Center
08:00PM 40.7483 -95.7133 79° East 544 626 45,000  Level Minneapolis Center
08:01PM 40.7769 -95.5186 79° East 545 627 45,000  Level Minneapolis Center
08:02PM 40.8069 -95.3250 78° East 545 627 45,000  Level Minneapolis Center
08:03PM 40.8408 -95.0931 79° East 540 621 45,000  Level Minneapolis Center
08:04PM 40.8686 -94.9006 79° East 538 619 45,000  Level Minneapolis Center
08:05PM 40.8972 -94.7058 79° East 541 623 45,000  Level Minneapolis Center
08:10PM 41.0438 -93.6364 79° East 538 619 45,000  Level FlightAware ADS-B
08:11PM 41.0517 -93.5769 80° East 538 619 45,000  Level FlightAware ADS-B
08:12PM 41.0776 -93.3787 80° East 536 617 45,000  Level FlightAware ADS-B
08:13PM 41.1020 -93.1896 80° East 532 612 45,000  Level FlightAware ADS-B
08:14PM 41.1249 -93.0095 80° East 532 612 45,000  Level FlightAware ADS-B
08:14PM 41.0948 -93.2454 260° West 532 612 45,000  Level FlightAware ADS-B
08:16PM 41.1792 -92.5726 80° East 533 613 45,000  Level FlightAware ADS-B
08:18PM 41.2351 -92.1086 81° East 534 615 45,000  Level FlightAware ADS-B
08:19PM 41.2585 -91.9083 81° East 533 613 45,000  Level FlightAware ADS-B
08:20PM 41.2695 -91.8135 81° East 532 612 45,000  Level FlightAware ADS-B
08:21PM 41.2585 -91.9083 261° West 528 608 45,000  Level FlightAware ADS-B
08:23PM 41.3434 -91.1571 81° East 526 605 45,000  Level FlightAware ADS-B
08:24PM 41.3544 -91.0578 81° East 524 603 45,000  Level Chicago Center
08:25PM 41.3753 -90.8658 82° East 524 603 45,000  Level Chicago Center
08:26PM 41.3961 -90.6711 82° East 528 608 45,000  Level Chicago Center
08:27PM 41.4158 -90.4758 82° East 530 610 45,000  Level Chicago Center
08:28PM 41.4369 -90.2806 82° East 530 610 45,000  Level Chicago Center
08:29PM 41.4564 -90.0847 82° East 531 611 45,000  Level Chicago Center
08:30PM 41.4786 -89.8547 83° East 522 601 45,000  Level Chicago Center
08:31PM 41.4989 -89.6622 82° East 520 598 45,000  Level Chicago Center
08:32PM 41.5164 -89.4708 83° East 518 596 45,000  Level Chicago Center
08:33PM 41.5350 -89.2819 82° East 513 590 45,000  Level Chicago Center
08:34PM 41.5494 -89.1033 84° East 513 590 45,000  Level Chicago Center
08:35PM 41.5689 -88.8792 83° East 510 587 45,000  Level Chicago Center
08:36PM 41.5856 -88.6894 83° East 513 590 45,000  Level Chicago Center
08:37PM 41.6025 -88.4983 83° East 517 595 45,000  Level Chicago Center
08:38PM 41.6194 -88.3067 83° East 518 596 45,000  Level Chicago Center
08:39PM 41.6361 -88.1133 83° East 518 596 45,000  Level Chicago Center
08:40PM 41.6517 -87.9192 84° East 519 597 45,000  Level Chicago Center
08:41PM 41.6667 -87.7272 84° East 516 594 45,000  Level Chicago Center
08:42PM 41.6836 -87.5008 84° East 511 588 45,000  Level Chicago Center
08:44PM 41.6981 -87.3131 84° East 509 586 45,000  Level Chicago Center
08:45PM 41.7117 -87.1267 84° East 506 582 45,000  Level Chicago Center
08:46PM 41.7256 -86.9414 84° East 502 578 45,000  Level Chicago Center
08:47PM 41.7389 -86.7583 84° East 498 573 45,000  Level Chicago Center
08:48PM 41.7522 -86.5597 85° East 500 575 45,000  Level Chicago Center
08:49PM 41.7642 -86.3739 85° East 500 575 45,000  Level Chicago Center
08:50PM 41.7817 -86.1894 83° East 500 575 45,000  Level Chicago Center
08:51PM 41.8036 -85.9708 82° East 494 568 45,000  Level Chicago Center
08:52PM 41.8236 -85.7867 82° East 497 572 45,000  Level Chicago Center
08:53PM 41.8422 -85.6008 82° East 499 574 45,000  Level Chicago Center
08:54PM 41.8606 -85.4133 82° East 498 573 45,000  Level Chicago Center
08:55PM 41.8781 -85.2267 83° East 498 573 45,000  Level Chicago Center
08:56PM 41.8989 -85.0397 81° East 503 579 45,000  Level Chicago Center
08:57PM 41.9175 -84.8503 82° East 526 605 45,000  Level Chicago Center
08:58PM 41.9353 -84.6664 83° East 503 579 45,000  Level Chicago Center
08:59PM 41.9567 -84.4469 82° East 495 570 45,000  Level Chicago Center
09:00PM 41.9703 -84.3025 83° East 491 565 45,000  Level Cleveland Center
09:01PM 41.9881 -84.1036 83° East 492 566 45,000  Level Cleveland Center
09:02PM 42.0047 -83.9211 83° East 495 570 45,000  Level Cleveland Center
09:03PM 42.0214 -83.7381 83° East 498 573 45,000  Level Cleveland Center
09:04PM 42.0406 -83.5283 83° East 500 575 45,000  Level Cleveland Center
09:05PM 42.0522 -83.3411 85° East 499 574 45,000  Level Cleveland Center
09:06PM 42.0611 -83.1556 86° East 498 573 45,000  Level Cleveland Center
09:07PM 42.0708 -82.9706 86° East 501 577 45,000  Level Cleveland Center
09:08PM 42.0789 -82.7869 87° East 497 572 45,000  Level Cleveland Center
09:09PM 42.0861 -82.6033 87° East 494 568 45,000  Level Cleveland Center
09:10PM 42.0958 -82.4203 86° East 493 567 45,000  Level Cleveland Center
09:11PM 42.1025 -82.2361 87° East 496 571 45,000  Level Cleveland Center
09:12PM 42.1111 -82.0333 87° East 493 567 45,000  Level Cleveland Center
09:14PM 42.1170 -81.8138 88° East  Level FlightAware Approximate
09:14PM 42.1247 -81.6597 88° East 494 568 45,000  Level Cleveland Center
09:15PM 42.1317 -81.4722 87° East 495 570 45,000  Level Cleveland Center
09:16PM 42.1372 -81.2856 88° East 494 568 45,000  Level Cleveland Center
09:17PM 42.1431 -81.0992 88° East 493 567 45,000  Level Cleveland Center
09:18PM 42.1500 -80.8808 87° East 494 568 45,000  Level Cleveland Center
09:19PM 42.1553 -80.6933 88° East 495 570 45,000  Level Cleveland Center
09:20PM 42.1606 -80.5061 88° East 494 568 45,000  Level Cleveland Center
09:21PM 42.1644 -80.3183 88° East 497 572 45,000  Level Cleveland Center
09:23PM 42.1697 -80.1319 88° East 495 570 45,000  Level Cleveland Center
09:24PM 42.1744 -79.9475 88° East 488 562 45,000  Level Cleveland Center
09:25PM 42.1769 -79.7664 89° East 486 559 45,000  Level Cleveland Center
09:26PM 42.1814 -79.5856 88° East 485 558 45,000  Level Cleveland Center
09:27PM 42.1842 -79.4075 89° East 478 550 45,000  Level Cleveland Center
09:28PM 42.1847 -79.2336 90° East 468 539 45,000  Level Cleveland Center
09:29PM 42.1628 -79.0336 98° East 453 521 45,000  Level Cleveland Center
09:30PM 42.1275 -78.8769 107° East 442 509 45,000  Level Cleveland Center
09:31PM 42.0867 -78.7178 109° East 448 516 45,000 -180 Level Cleveland Center
09:32PM 42.0461 -78.5525 108° East 462 532 44,700 -1,440 Descending Cleveland Center
09:33PM 42.0028 -78.3828 109° East 476 548 42,100 -2,460 Descending Cleveland Center
09:34PM 41.9592 -78.2125 109° East 482 555 39,700 -2,400 Descending Cleveland Center
09:35PM 41.9139 -78.0361 109° East 477 549 37,300 -2,340 Descending Cleveland Center
09:36PM 41.8678 -77.8650 110° East 481 554 35,100 -1,200 Descending New York Center
09:37PM 41.8233 -77.6989 110° East 481 554 35,000 -60 Descending New York Center
09:38PM 41.7808 -77.5358 109° East 481 554 35,000  Level New York Center
09:39PM 41.7381 -77.3703 109° East 481 554 35,000  Level New York Center
09:40PM 41.6908 -77.2017 111° Southeast 481 554 35,000  Level New York Center
09:41PM 41.6478 -77.0336 109° East 481 554 35,000  Level New York Center
09:42PM 41.6022 -76.8686 110° East 481 554 35,000  Level New York Center
09:43PM 41.5564 -76.7036 110° East 481 554 35,000 -1,200 Level New York Center
09:44PM 41.5106 -76.5361 110° East 481 554 32,600 -2,400 Descending New York Center
09:45PM 41.4719 -76.3858 109° East 481 554 30,200 -2,700 Descending New York Center
09:46PM 41.4219 -76.2103 111° Southeast 486 559 27,200 -2,940 Descending New York Center
09:47PM 41.3767 -76.0544 111° Southeast 475 547 24,400 -2,760 Descending New York Center
09:48PM 41.3333 -75.9047 111° Southeast 448 516 21,700 -2,700 Descending New York Center
09:49PM 41.2914 -75.7633 112° Southeast 430 495 19,100 -1,860 Descending New York Center
09:50PM 41.2439 -75.6053 112° Southeast 412 474 18,000 -600 Descending New York Center
09:51PM 41.1994 -75.4697 114° Southeast 403 464 17,900 -1,260 Descending New York Center
09:52PM 41.1567 -75.3400 114° Southeast 389 448 15,500 -2,940 Descending New York Center
09:53PM 41.1192 -75.2300 114° Southeast 377 434 12,100 -3,180 Descending New York Center
09:54PM 41.0797 -75.1092 113° Southeast 362 417 9,200 -1,380 Descending New York Center
10:00PM 40.8489 -74.5625 113° Southeast 252 290 2,600 -1,080 Descending FlightAware ADS-B
10:00PM 40.8392 -74.5418 122° Southeast 252 290 2,600  Level FlightAware ADS-B
10:00PM 40.8298 -74.5217 122° Southeast 251 289 2,600  Level FlightAware ADS-B
10:01PM 40.8205 -74.5019 122° Southeast 251 289 2,600  Level FlightAware ADS-B
10:01PM 40.8113 -74.4821 122° Southeast 251 289 2,600  Level FlightAware ADS-B
10:01PM 40.8011 -74.4603 122° Southeast 253 291 2,600 -120 Level FlightAware ADS-B
10:02PM 40.7643 -74.3816 122° Southeast 253 291 2,500 -360 Descending FlightAware ADS-B
10:02PM 40.7546 -74.3610 122° Southeast 250 288 2,200 -960 Descending FlightAware ADS-B
10:03PM 40.7449 -74.3404 122° Southeast 241 277 2,000 -900 Descending FlightAware ADS-B
10:03PM 40.7351 -74.3193 122° Southeast 233 268 1,700 -720 Descending FlightAware ADS-B
10:03PM 40.7260 -74.3000 122° Southeast 214 246 1,600 -300 Descending FlightAware ADS-B
10:03PM 40.7231 -74.2927 118° Southeast 203 234 1,600  Level FlightAware ADS-B
10:03PM 40.7219 -74.2887 112° Southeast 197 227 1,600  Level FlightAware ADS-B
10:03PM 40.7209 -74.2826 102° East 192 221 1,600  Level FlightAware ADS-B
10:03PM 40.7211 -74.2781 87° East 184 212 1,600  Level FlightAware ADS-B
10:04PM 40.7222 -74.2696 80° East 174 200 1,600  Level FlightAware ADS-B
10:04PM 40.7230 -74.2650 77° East 169 194 1,600  Level FlightAware ADS-B
10:04PM 40.7252 -74.2527 77° East 166 191 1,600  Level FlightAware ADS-B
10:04PM 40.7269 -74.2479 65° Northeast 165 190 1,600  Level FlightAware ADS-B
10:04PM 40.7282 -74.2450 59° Northeast 165 190 1,600  Level FlightAware ADS-B
10:04PM 40.7309 -74.2405 52° Northeast 165 190 1,600 -600 Level FlightAware ADS-B
10:04PM 40.7392 -74.2286 47° Northeast 166 191 1,400 -960 Descending FlightAware ADS-B
10:05PM 40.7476 -74.2164 48° Northeast 163 188 1,100 -540 Descending FlightAware ADS-B
10:05PM 40.7571 -74.2021 49° Northeast 156 180 1,100  Level FlightAware ADS-B
10:05PM 40.7649 -74.1904 49° Northeast 155 178 1,100  Level FlightAware ADS-B
10:06PM 40.7710 -74.1816 48° Northeast 155 178 1,100  Level FlightAware ADS-B
10:06PM 40.7747 -74.1762 48° Northeast 153 176 1,100  Level FlightAware ADS-B
10:06PM 40.7804 -74.1676 49° Northeast 156 180 1,100  Level FlightAware ADS-B
10:06PM 40.7877 -74.1567 49° Northeast 147 169 1,100  Level FlightAware ADS-B
10:07PM 40.7980 -74.1420 47° Northeast 134 154 1,100 -180 Level FlightAware ADS-B
10:07PM 40.8023 -74.1358 48° Northeast 135 155 1,000 -720 Descending FlightAware ADS-B
10:07PM 40.8224 -74.1061 48° Northeast 133 153 400 -780 Descending FlightAware ADS-B
10:08PM 40.8250 -74.1023 48° Northeast 132 152 300 -720 Descending FlightAware ADS-B
10:08PM 40.8296 -74.0956 48° Northeast 129 148 200 -600 Descending FlightAware ADS-B
10:08PM 40.8331 -74.0905 48° Northeast 127 146 100 -720 Descending FlightAware ADS-B